Time;durP1;ratioP1;P1;durP2;ratioP2;P2;SDS_P1;SDS_P2;PMS_P1;PMS_P2;Temp;Humidity;BMP_temperature;BMP_pressure;BME280_temperature;BME280_humidity;BME280_pressure;Samples;Min_cycle;Max_cycle;Signal;HPM_P1;HPM_P2
2023/07/18 00:00:33;;;;;;;10.10;3.80;;;;;;;18.40;78.34;100682.58;223640;1265;143332;-90
2023/07/18 00:05:36;;;;;;;7.90;3.90;;;;;;;18.34;78.35;100704.89;224107;1264;139771;-91
2023/07/18 00:10:36;;;;;;;8.70;4.30;;;;;;;18.30;78.35;100707.79;223591;1264;141276;-91
2023/07/18 00:15:37;;;;;;;8.30;3.70;;;;;;;18.26;78.34;100703.08;224178;1264;139477;-90
2023/07/18 00:20:38;;;;;;;10.10;3.30;;;;;;;18.24;77.86;100693.64;223613;1265;143411;-91
2023/07/18 00:25:38;;;;;;;8.80;3.80;;;;;;;18.20;77.92;100688.77;224295;1264;96000;-91
2023/07/18 00:30:39;;;;;;;9.30;3.80;;;;;;;18.17;78.15;100697.02;223574;1264;140573;-90
2023/07/18 00:35:40;;;;;;;8.60;3.70;;;;;;;18.15;77.84;100699.90;224126;1264;138633;-91
2023/07/18 00:40:41;;;;;;;8.20;3.20;;;;;;;18.09;78.41;100686.33;223638;1264;140739;-91
2023/07/18 00:45:43;;;;;;;8.80;3.30;;;;;;;18.04;78.78;100693.88;224013;1266;138749;-91
2023/07/18 00:50:43;;;;;;;8.30;3.50;;;;;;;18.00;78.41;100695.67;223687;1264;142901;-91
2023/07/18 00:55:44;;;;;;;6.70;3.00;;;;;;;17.99;78.35;100704.05;224377;1264;95886;-91
2023/07/18 01:00:44;;;;;;;10.20;3.60;;;;;;;17.97;77.86;100715.30;223555;1264;141134;-90
2023/07/18 01:05:45;;;;;;;10.50;4.00;;;;;;;17.90;78.38;100723.42;224155;1264;139221;-90
2023/07/18 01:10:45;;;;;;;12.30;3.30;;;;;;;17.81;77.72;100729.21;223628;1265;141218;-90
2023/07/18 01:15:46;;;;;;;10.20;3.80;;;;;;;17.76;77.24;100731.29;224078;1264;139341;-91
2023/07/18 01:20:47;;;;;;;8.10;3.50;;;;;;;17.69;77.17;100738.52;223633;1264;142176;-92
2023/07/18 01:25:48;;;;;;;8.80;3.40;;;;;;;17.59;78.47;100740.47;224258;1265;95814;-91
2023/07/18 01:30:49;;;;;;;9.00;3.70;;;;;;;17.42;79.11;100741.70;223468;1264;142224;-91
2023/07/18 01:35:51;;;;;;;8.60;3.70;;;;;;;17.29;79.17;100736.98;224156;1265;139278;-91
2023/07/18 01:40:52;;;;;;;9.70;3.50;;;;;;;17.19;78.88;100740.20;223586;1264;140739;-91
2023/07/18 01:45:58;;;;;;;9.50;3.80;;;;;;;17.10;79.76;100744.67;224168;1264;138889;-91
2023/07/18 01:50:59;;;;;;;7.40;3.10;;;;;;;16.96;80.42;100747.91;223398;1266;140914;-92
2023/07/18 01:56:00;;;;;;;9.80;3.40;;;;;;;16.83;80.47;100759.00;224331;1265;96798;-92
2023/07/18 02:01:02;;;;;;;8.50;3.70;;;;;;;16.74;80.18;100760.04;223630;1266;140294;-91
2023/07/18 02:06:04;;;;;;;10.10;4.00;;;;;;;16.67;80.28;100767.64;224146;1267;138500;-91
2023/07/18 02:11:04;;;;;;;10.80;4.10;;;;;;;16.60;80.36;100766.50;223489;1265;141778;-91
2023/07/18 02:16:05;;;;;;;10.80;3.70;;;;;;;16.51;80.40;100770.78;224173;1266;139465;-91
2023/07/18 02:21:05;;;;;;;9.10;3.60;;;;;;;16.44;79.94;100773.77;223647;1264;141148;-91
2023/07/18 02:26:05;;;;;;;12.40;4.30;;;;;;;16.37;79.78;100774.11;224154;1264;139203;-91
2023/07/18 02:31:07;;;;;;;7.10;2.70;;;;;;;16.24;81.02;100778.64;223745;1264;141047;-91
2023/07/18 02:36:08;;;;;;;7.80;3.60;;;;;;;16.09;80.06;100779.44;224180;1264;139185;-91
2023/07/18 02:41:09;;;;;;;7.60;3.00;;;;;;;16.05;79.69;100787.64;223782;1265;140689;-91
2023/07/18 02:46:09;;;;;;;8.00;2.90;;;;;;;15.96;81.00;100794.98;224221;1264;139597;-92
2023/07/18 02:51:10;;;;;;;6.90;3.00;;;;;;;15.78;81.87;100794.42;223652;1267;141922;-90
2023/07/18 02:56:11;;;;;;;6.60;2.90;;;;;;;15.65;81.99;100798.84;224192;1264;139039;-90
2023/07/18 03:01:12;;;;;;;8.70;3.00;;;;;;;15.59;81.57;100804.89;223744;1267;140550;-91
2023/07/18 03:06:14;;;;;;;9.10;2.90;;;;;;;15.53;82.55;100809.66;224182;1266;138520;-90
2023/07/18 03:11:15;;;;;;;8.50;2.90;;;;;;;15.44;83.08;100814.61;223561;1266;140295;-92
2023/07/18 03:16:15;;;;;;;7.30;2.80;;;;;;;15.37;83.13;100815.18;224121;1264;138629;-91
2023/07/18 03:21:16;;;;;;;7.90;3.00;;;;;;;15.31;82.75;100822.85;223613;1266;141572;-91
2023/07/18 03:26:16;;;;;;;6.80;2.70;;;;;;;15.26;82.97;100827.28;224177;1264;138825;-90
2023/07/18 03:31:17;;;;;;;8.30;3.00;;;;;;;15.21;82.48;100832.91;223801;1264;140905;-90
2023/07/18 03:36:17;;;;;;;8.30;3.10;;;;;;;15.17;83.31;100844.02;224150;1264;138468;-91
2023/07/18 03:41:17;;;;;;;7.00;2.70;;;;;;;15.11;83.84;100842.44;223607;1268;141717;-91
2023/07/18 03:46:18;;;;;;;6.80;2.60;;;;;;;15.09;84.25;100853.36;224181;1264;139138;-90
2023/07/18 03:51:18;;;;;;;5.30;2.40;;;;;;;15.04;84.78;100857.41;223641;1266;140385;-91
2023/07/18 03:56:20;;;;;;;5.40;2.60;;;;;;;14.99;85.14;100865.33;224112;1266;138784;-90
2023/07/18 04:01:20;;;;;;;6.00;2.70;;;;;;;14.96;85.00;100870.71;223727;1268;140611;-90
2023/07/18 04:06:21;;;;;;;8.30;2.50;;;;;;;14.94;85.27;100880.77;224139;1264;138838;-91
2023/07/18 04:11:21;;;;;;;9.10;2.20;;;;;;;14.90;84.62;100880.05;223610;1265;141749;-90
2023/07/18 04:16:22;;;;;;;5.90;2.30;;;;;;;14.90;85.40;100886.31;224106;1264;139159;-89
2023/07/18 04:21:23;;;;;;;8.80;3.50;;;;;;;14.87;84.88;100892.58;223595;1264;142756;-89
2023/07/18 04:26:24;;;;;;;7.20;2.40;;;;;;;14.87;84.91;100894.94;224116;1265;139093;-88
2023/07/18 04:31:24;;;;;;;7.80;2.60;;;;;;;14.88;85.29;100894.39;223839;1268;142242;-89
2023/07/18 04:36:25;;;;;;;7.20;2.30;;;;;;;14.87;84.99;100895.42;224093;1268;138507;-89
2023/07/18 04:41:26;;;;;;;7.80;2.90;;;;;;;14.89;85.21;100895.48;223569;1266;141409;-89
2023/07/18 04:46:26;;;;;;;7.30;2.80;;;;;;;14.93;85.09;100899.61;224155;1264;138994;-90
2023/07/18 04:51:27;;;;;;;6.60;2.70;;;;;;;14.99;85.35;100901.37;223597;1264;140740;-89
2023/07/18 04:56:27;;;;;;;7.40;3.00;;;;;;;15.05;85.02;100901.77;224140;1265;139228;-89
2023/07/18 05:01:30;;;;;;;5.80;2.50;;;;;;;15.12;84.67;100908.98;223561;1266;141054;-90
2023/07/18 05:06:31;;;;;;;7.90;2.70;;;;;;;15.20;84.27;100909.21;224046;1266;139374;-89
2023/07/18 05:11:32;;;;;;;5.00;2.20;;;;;;;15.31;84.31;100909.14;223557;1266;141190;-93
2023/07/18 05:16:32;;;;;;;6.60;2.80;;;;;;;15.43;83.91;100908.52;224144;1264;139497;-91
2023/07/18 05:21:33;;;;;;;5.40;2.00;;;;;;;15.57;83.99;100904.23;223581;1268;141272;-92
2023/07/18 05:26:33;;;;;;;5.30;2.00;;;;;;;15.77;83.96;100907.58;224144;1264;139095;-90
2023/07/18 05:31:33;;;;;;;6.20;2.40;;;;;;;16.01;83.85;100912.75;223679;1264;140706;-92
2023/07/18 05:36:34;;;;;;;7.80;2.90;;;;;;;16.37;83.30;100915.95;224112;1265;138600;-92
2023/07/18 05:41:34;;;;;;;8.90;2.70;;;;;;;16.85;82.27;100922.70;223583;1264;140902;-90
2023/07/18 05:46:35;;;;;;;6.40;2.40;;;;;;;17.44;81.17;100928.04;224095;1264;138840;-90
2023/07/18 05:51:35;;;;;;;7.20;2.80;;;;;;;18.08;79.71;100928.43;223437;1266;140658;-92
2023/07/18 05:56:36;;;;;;;7.30;2.00;;;;;;;18.78;78.44;100925.33;224068;1268;137806;-89
2023/07/18 06:01:36;;;;;;;8.10;2.50;;;;;;;19.49;75.59;100922.77;223579;1264;141543;-91
2023/07/18 06:06:38;;;;;;;8.50;2.40;;;;;;;20.25;74.58;100921.98;224020;1264;138899;-92
2023/07/18 06:11:38;;;;;;;9.70;2.60;;;;;;;21.02;71.46;100927.08;223538;1268;140799;-94
2023/07/18 06:16:39;;;;;;;6.70;2.30;;;;;;;21.62;67.77;100928.55;224126;1264;139334;-90
2023/07/18 06:21:39;;;;;;;6.90;2.20;;;;;;;22.17;66.01;100932.73;223587;1265;141366;-89
2023/07/18 06:26:40;;;;;;;13.70;2.30;;;;;;;22.75;63.87;100937.30;224144;1264;137918;-92
2023/07/18 06:31:41;;;;;;;7.90;2.10;;;;;;;23.19;60.72;100936.66;223544;1268;140985;-91
2023/07/18 06:36:43;;;;;;;5.80;2.30;;;;;;;23.54;59.54;100937.33;223966;1264;137747;-90
2023/07/18 06:41:44;;;;;;;7.50;2.20;;;;;;;23.98;58.29;100935.64;223478;1264;141032;-90
2023/07/18 06:46:45;;;;;;;6.30;2.50;;;;;;;24.44;57.41;100937.64;224063;1266;138940;-91
2023/07/18 06:51:46;;;;;;;7.30;2.30;;;;;;;24.76;55.09;100936.43;223449;1268;140764;-88
2023/07/18 06:56:47;;;;;;;4.30;1.50;;;;;;;25.16;54.53;100935.80;224091;1268;139096;-91
2023/07/18 07:01:47;;;;;;;9.40;2.00;;;;;;;25.51;53.13;100935.81;223641;1268;140265;-88
2023/07/18 07:06:47;;;;;;;6.20;2.00;;;;;;;25.84;51.75;100939.05;224069;1264;138152;-91
2023/07/18 07:11:48;;;;;;;4.80;1.80;;;;;;;26.14;51.11;100940.09;223458;1268;140674;-90
2023/07/18 07:16:48;;;;;;;7.90;2.00;;;;;;;26.35;49.16;100940.48;224029;1267;137980;-91
2023/07/18 07:21:49;;;;;;;6.30;1.90;;;;;;;26.45;47.53;100944.80;223451;1264;141726;-86
2023/07/18 07:26:50;;;;;;;6.30;1.90;;;;;;;26.37;47.05;100942.33;224071;1264;138159;-86
2023/07/18 07:31:51;;;;;;;6.40;2.00;;;;;;;26.40;46.41;100942.75;223533;1268;140893;-89
2023/07/18 07:36:53;;;;;;;7.40;2.10;;;;;;;26.36;45.67;100943.52;224052;1264;137898;-86
2023/07/18 07:41:53;;;;;;;4.90;1.90;;;;;;;26.34;45.81;100940.23;223519;1264;141404;-87
2023/07/18 07:46:55;;;;;;;4.60;1.30;;;;;;;26.48;44.73;100941.98;224131;1264;138174;-86
2023/07/18 07:51:55;;;;;;;7.10;2.20;;;;;;;26.23;45.78;100945.48;223541;1264;140585;-85
2023/07/18 07:56:56;;;;;;;3.50;1.40;;;;;;;26.26;45.67;100938.38;224059;1269;138388;-88
2023/07/18 08:01:56;;;;;;;4.90;1.80;;;;;;;26.15;46.28;100932.04;223659;1264;141015;-85
2023/07/18 08:06:56;;;;;;;6.20;2.00;;;;;;;26.11;46.02;100928.33;224074;1264;137627;-86
2023/07/18 08:11:58;;;;;;;6.10;1.90;;;;;;;26.34;46.17;100924.45;223590;1264;140293;-86
2023/07/18 08:16:59;;;;;;;9.10;2.10;;;;;;;26.53;44.78;100920.80;224056;1264;138125;-87
2023/07/18 08:22:00;;;;;;;7.60;2.10;;;;;;;26.59;45.19;100918.64;223537;1264;140216;-88
2023/07/18 08:27:01;;;;;;;6.90;2.70;;;;;;;26.82;44.87;100918.99;223967;1268;137982;-88
2023/07/18 08:32:01;;;;;;;6.10;2.10;;;;;;;27.38;44.26;100917.06;223456;1269;140286;-87
2023/07/18 08:37:02;;;;;;;7.00;2.30;;;;;;;27.69;43.37;100914.76;224093;1264;95969;-87
2023/07/18 08:42:06;;;;;;;4.40;1.80;;;;;;;28.04;41.99;100904.96;223436;1264;140376;-85
2023/07/18 08:47:08;;;;;;;7.90;2.00;;;;;;;28.42;41.63;100894.76;224004;1264;138221;-88
2023/07/18 08:52:09;;;;;;;3.80;1.60;;;;;;;28.99;40.21;100891.69;223557;1263;139820;-88
2023/07/18 08:57:11;;;;;;;5.60;1.90;;;;;;;29.18;39.79;100882.49;224059;1264;138094;-89
2023/07/18 09:02:11;;;;;;;8.50;2.10;;;;;;;29.48;38.71;100883.14;223437;1264;139924;-91
2023/07/18 09:07:13;;;;;;;6.20;1.90;;;;;;;29.45;39.01;100883.55;224052;1267;95859;-86
2023/07/18 09:12:15;;;;;;;5.30;1.80;;;;;;;30.07;39.38;100875.03;223533;1264;139569;-88
2023/07/18 09:17:15;;;;;;;3.20;1.50;;;;;;;30.71;37.24;100873.92;224088;1264;137918;-88
2023/07/18 09:22:19;;;;;;;4.80;1.70;;;;;;;31.22;36.17;100866.95;223486;1264;139576;-88
2023/07/18 09:27:20;;;;;;;7.00;1.80;;;;;;;31.29;35.03;100871.51;224049;1264;138055;-86
2023/07/18 09:32:22;;;;;;;4.30;1.70;;;;;;;31.57;33.82;100876.09;223522;1264;139657;-89
2023/07/18 09:37:23;;;;;;;5.80;1.80;;;;;;;31.71;33.55;100868.45;224046;1264;99777;-90
2023/07/18 09:42:24;;;;;;;5.60;1.80;;;;;;;31.84;31.74;100860.17;223142;1264;518355;-87
2023/07/18 09:47:26;;;;;;;4.80;1.80;;;;;;;31.75;32.58;100858.84;224085;1264;138354;-85
2023/07/18 09:52:28;;;;;;;4.30;1.90;;;;;;;32.17;33.00;100863.67;223586;1264;139500;-87
2023/07/18 09:57:29;;;;;;;5.80;1.40;;;;;;;32.50;31.37;100860.16;224139;1264;138006;-87
2023/07/18 10:02:30;;;;;;;4.50;1.30;;;;;;;32.46;30.84;100857.64;223568;1263;140588;-86
2023/07/18 10:07:35;;;;;;;4.40;1.60;;;;;;;32.84;31.34;100851.25;224225;1264;95925;-90
2023/07/18 10:12:54;;;;;;;8.30;1.80;;;;;;;32.90;30.22;100847.83;223410;1265;139793;-87
2023/07/18 10:18:15;;;;;;;3.70;1.60;;;;;;;32.31;30.03;100843.45;224029;1264;138578;-89
2023/07/18 10:23:16;;;;;;;3.20;1.20;;;;;;;31.72;30.45;100837.80;223476;1264;140459;-89
2023/07/18 10:28:17;;;;;;;6.70;2.00;;;;;;;31.51;30.93;100835.46;224067;1264;138176;-90
2023/07/18 10:33:17;;;;;;;3.80;1.60;;;;;;;31.43;30.68;100830.20;223522;1264;140900;-88
2023/07/18 10:38:18;;;;;;;4.90;1.60;;;;;;;31.33;30.97;100823.28;223945;1264;138299;-86
2023/07/18 10:43:20;;;;;;;3.10;1.60;;;;;;;31.19;30.49;100824.64;223638;1264;140083;-89
2023/07/18 10:48:20;;;;;;;7.90;1.70;;;;;;;31.27;30.28;100816.31;223988;1264;138055;-91
2023/07/18 10:53:23;;;;;;;3.30;1.60;;;;;;;31.20;30.26;100803.23;223538;1264;140604;-90
2023/07/18 10:58:23;;;;;;;6.70;1.70;;;;;;;30.90;30.63;100798.35;223976;1264;139030;-87
2023/07/18 11:03:34;;;;;;;6.10;1.70;;;;;;;30.75;30.68;100800.17;223551;1264;140468;-88
2023/07/18 11:08:35;;;;;;;5.40;1.90;;;;;;;30.56;29.55;100794.23;223997;1264;138331;-88
2023/07/18 11:13:38;;;;;;;2.80;1.30;;;;;;;30.32;30.26;100791.55;223687;1264;139914;-87
2023/07/18 11:18:41;;;;;;;3.70;1.60;;;;;;;30.04;30.07;100787.04;224102;1264;137815;-85
2023/07/18 11:23:43;;;;;;;4.70;1.70;;;;;;;30.11;31.08;100785.41;223513;1264;141297;-87
2023/07/18 11:28:45;;;;;;;6.30;1.70;;;;;;;30.20;29.61;100781.21;224095;1264;137967;-87
2023/07/18 11:33:57;;;;;;;4.20;1.50;;;;;;;29.88;30.09;100773.27;223505;1264;140736;-89
2023/07/18 11:38:58;;;;;;;3.00;1.30;;;;;;;30.09;29.92;100776.73;223475;1262;140057;-92
2023/07/18 11:44:03;;;;;;;2.40;1.30;;;;;;;30.19;29.98;100773.42;224457;1264;95918;-89
2023/07/18 11:49:04;;;;;;;3.40;1.70;;;;;;;30.42;30.32;100769.23;223734;1264;141574;-87
2023/07/18 11:54:05;;;;;;;5.90;1.60;;;;;;;30.48;30.40;100765.33;224070;1264;137855;-88
2023/07/18 11:59:08;;;;;;;5.80;1.60;;;;;;;30.13;31.17;100754.07;223609;1264;139948;-87
2023/07/18 12:04:15;;;;;;;4.60;1.40;;;;;;;29.84;31.37;100742.79;224014;1264;138142;-87
2023/07/18 12:09:15;;;;;;;2.50;1.30;;;;;;;29.81;30.90;100745.33;223304;1264;140333;-87
2023/07/18 12:14:16;;;;;;;4.50;1.50;;;;;;;29.75;31.00;100745.01;223975;1264;138211;-86
2023/07/18 12:19:19;;;;;;;5.40;1.60;;;;;;;29.73;32.48;100738.14;223505;1264;139684;-86
2023/07/18 12:24:19;;;;;;;2.60;1.40;;;;;;;29.67;31.05;100734.25;224094;1264;138936;-85
2023/07/18 12:29:20;;;;;;;4.50;1.50;;;;;;;29.61;31.46;100729.40;223505;1264;140457;-85
2023/07/18 12:34:21;;;;;;;7.50;1.80;;;;;;;29.97;31.47;100733.86;224094;1264;138062;-87
2023/07/18 12:39:22;;;;;;;5.70;2.00;;;;;;;30.16;30.64;100721.62;223633;1264;140936;-85
2023/07/18 12:44:37;;;;;;;4.80;1.50;;;;;;;30.23;29.85;100711.45;224085;1264;137953;-86
2023/07/18 12:49:37;;;;;;;3.70;1.40;;;;;;;30.16;29.95;100705.60;223638;1264;140660;-87
2023/07/18 12:54:38;;;;;;;3.40;1.60;;;;;;;29.89;30.58;100701.55;224033;1264;138234;-87
2023/07/18 12:59:38;;;;;;;8.50;1.30;;;;;;;29.82;30.60;100695.59;223570;1264;139588;-86
2023/07/18 13:04:39;;;;;;;4.90;1.40;;;;;;;29.80;30.07;100689.35;224109;1264;138204;-84
2023/07/18 13:09:40;;;;;;;2.70;1.40;;;;;;;29.76;30.31;100685.13;223534;1264;139885;-84
2023/07/18 13:14:40;;;;;;;8.20;1.90;;;;;;;29.72;29.81;100678.13;224083;1264;138779;-85
2023/07/18 13:19:41;;;;;;;4.30;1.40;;;;;;;29.47;29.99;100678.69;223642;1264;140019;-85
2023/07/18 13:24:41;;;;;;;4.50;1.50;;;;;;;29.38;30.03;100664.05;224092;1264;138033;-84
2023/07/18 13:29:42;;;;;;;4.20;1.30;;;;;;;29.22;30.43;100655.58;223652;1264;141050;-85
2023/07/18 13:34:43;;;;;;;6.30;1.70;;;;;;;29.13;31.11;100650.44;224123;1264;138193;-85
2023/07/18 13:39:43;;;;;;;5.30;1.80;;;;;;;29.22;30.61;100650.08;223556;1264;140285;-86
2023/07/18 13:44:44;;;;;;;3.90;1.20;;;;;;;29.14;31.15;100649.47;224127;1264;138034;-85
2023/07/18 13:49:44;;;;;;;4.30;1.30;;;;;;;29.09;31.38;100648.67;223635;1264;142215;-86
2023/07/18 13:54:44;;;;;;;7.80;1.60;;;;;;;29.04;31.62;100648.98;224162;1264;138063;-84
2023/07/18 13:59:45;;;;;;;2.50;1.30;;;;;;;29.41;31.22;100645.36;223530;1264;140466;-85
2023/07/18 14:04:45;;;;;;;5.10;1.80;;;;;;;29.32;30.36;100644.55;224094;1264;139385;-84
2023/07/18 14:09:46;;;;;;;4.70;1.20;;;;;;;29.33;30.77;100641.56;223606;1263;140993;-83
2023/07/18 14:14:46;;;;;;;5.40;1.40;;;;;;;29.69;30.83;100646.69;224140;1264;138589;-86
2023/07/18 14:19:47;;;;;;;4.20;1.60;;;;;;;29.81;30.45;100650.96;223681;1264;142130;-85
2023/07/18 14:24:48;;;;;;;7.10;1.90;;;;;;;29.83;30.47;100659.55;224146;1264;138410;-85
2023/07/18 14:29:48;;;;;;;4.10;1.80;;;;;;;29.90;30.10;100649.08;223596;1264;141198;-85
2023/07/18 14:34:48;;;;;;;2.80;1.60;;;;;;;29.78;29.91;100647.44;224120;1264;138141;-86
2023/07/18 14:40:03;;;;;;;8.50;1.70;;;;;;;29.28;30.50;100637.30;223504;1264;140478;-84
2023/07/18 14:45:04;;;;;;;5.50;1.70;;;;;;;29.17;30.97;100627.65;224085;1264;138473;-86
2023/07/18 14:50:05;;;;;;;4.10;1.40;;;;;;;28.91;30.65;100619.55;223611;1264;142074;-84
2023/07/18 14:55:06;;;;;;;5.40;1.70;;;;;;;28.29;31.18;100610.84;224252;1264;95997;-86
2023/07/18 15:00:07;;;;;;;4.60;1.60;;;;;;;28.20;31.89;100597.55;223630;1265;139819;-86
2023/07/18 15:05:08;;;;;;;2.50;1.50;;;;;;;28.21;31.72;100594.10;224199;1264;138146;-85
2023/07/18 15:10:09;;;;;;;2.90;1.50;;;;;;;28.11;31.63;100584.80;223608;1264;140406;-84
2023/07/18 15:15:09;;;;;;;5.60;1.60;;;;;;;27.87;32.13;100585.73;224009;1264;138489;-85
2023/07/18 15:20:12;;;;;;;6.40;2.30;;;;;;;27.95;32.26;100588.14;223660;1264;140184;-86
2023/07/18 15:25:13;;;;;;;4.20;1.50;;;;;;;27.94;31.86;100590.42;224287;1264;95921;-84
2023/07/18 15:30:13;;;;;;;4.70;1.50;;;;;;;27.73;32.00;100588.69;223453;1264;140483;-87
2023/07/18 15:35:14;;;;;;;5.10;1.60;;;;;;;27.57;32.48;100580.96;223999;1264;138521;-85
2023/07/18 15:40:15;;;;;;;3.90;1.30;;;;;;;27.49;31.91;100577.03;223582;1264;140477;-86
2023/07/18 15:45:15;;;;;;;2.40;1.50;;;;;;;27.23;32.22;100568.98;224129;1264;138497;-86
2023/07/18 15:50:16;;;;;;;4.90;1.60;;;;;;;27.17;32.43;100564.70;223583;1264;140348;-84
2023/07/18 15:55:16;;;;;;;4.30;1.70;;;;;;;27.06;32.40;100557.59;224214;1264;96055;-85
2023/07/18 16:00:17;;;;;;;2.50;1.20;;;;;;;26.94;32.78;100557.31;223582;1264;139828;-84
2023/07/18 16:05:18;;;;;;;4.90;1.60;;;;;;;26.77;32.60;100546.13;224170;1264;138299;-85
2023/07/18 16:10:18;;;;;;;3.90;1.50;;;;;;;26.64;32.72;100535.64;223462;1265;141422;-85
2023/07/18 16:15:19;;;;;;;3.40;1.60;;;;;;;26.51;33.09;100529.36;224141;1264;138140;-85
2023/07/18 16:20:20;;;;;;;6.10;1.70;;;;;;;26.28;32.99;100513.54;223585;1264;140474;-86
2023/07/18 16:25:20;;;;;;;3.50;1.50;;;;;;;26.03;32.85;100507.17;224281;1264;95840;-86
2023/07/18 16:30:21;;;;;;;4.00;1.60;;;;;;;25.96;33.43;100497.32;223601;1264;141303;-85
2023/07/18 16:35:21;;;;;;;3.50;1.30;;;;;;;25.79;34.21;100491.06;224081;1264;138278;-85
2023/07/18 16:40:22;;;;;;;2.70;1.30;;;;;;;25.49;34.34;100489.10;223618;1264;140711;-86
2023/07/18 16:45:22;;;;;;;3.50;1.50;;;;;;;25.30;34.56;100483.77;224133;1264;138547;-85
2023/07/18 16:50:23;;;;;;;3.60;1.40;;;;;;;25.15;34.79;100486.45;223466;1264;139608;-86
2023/07/18 16:55:24;;;;;;;6.10;1.70;;;;;;;24.95;34.77;100478.26;224297;1264;95936;-86
2023/07/18 17:00:24;;;;;;;4.00;1.40;;;;;;;24.82;35.37;100476.95;223642;1264;141370;-86
2023/07/18 17:05:25;;;;;;;8.40;2.10;;;;;;;24.74;35.59;100473.52;224197;1264;138370;-86
2023/07/18 17:10:25;;;;;;;5.90;2.00;;;;;;;24.60;36.57;100470.98;223648;1265;139552;-89
2023/07/18 17:15:26;;;;;;;3.50;1.50;;;;;;;24.50;37.10;100466.40;224071;1264;138684;-87
2023/07/18 17:20:26;;;;;;;5.90;2.10;;;;;;;24.40;37.73;100465.57;223591;1264;139669;-88
2023/07/18 17:25:27;;;;;;;6.70;1.70;;;;;;;24.32;37.66;100467.23;224243;1264;95840;-88
2023/07/18 17:30:28;;;;;;;3.50;1.70;;;;;;;24.20;38.35;100468.58;223569;1264;140156;-88
2023/07/18 17:35:29;;;;;;;5.10;2.00;;;;;;;24.05;38.55;100468.91;224193;1264;138569;-88
2023/07/18 17:40:29;;;;;;;5.30;1.70;;;;;;;23.97;38.76;100464.94;223604;1266;141824;-89
2023/07/18 17:45:30;;;;;;;6.90;1.60;;;;;;;23.90;38.61;100461.23;224080;1265;138726;-89
2023/07/18 17:50:30;;;;;;;3.90;1.50;;;;;;;23.82;38.82;100451.89;223692;1264;139962;-89
2023/07/18 17:55:31;;;;;;;3.90;1.40;;;;;;;23.77;38.75;100444.34;224340;1264;95714;-89
2023/07/18 18:00:31;;;;;;;8.50;1.90;;;;;;;23.73;38.91;100439.21;223666;1264;140375;-88
2023/07/18 18:05:46;;;;;;;4.40;1.70;;;;;;;23.68;38.82;100439.91;224093;1265;138950;-89
2023/07/18 18:10:48;;;;;;;4.40;1.80;;;;;;;23.55;39.29;100439.06;223585;1267;140663;-89
2023/07/18 18:15:48;;;;;;;3.00;1.30;;;;;;;23.41;39.82;100436.84;224162;1264;138108;-88
2023/07/18 18:20:49;;;;;;;4.70;1.70;;;;;;;23.26;40.02;100429.45;223637;1264;139726;-89
2023/07/18 18:25:49;;;;;;;6.00;2.20;;;;;;;23.13;40.26;100426.35;224324;1265;95872;-89
2023/07/18 18:30:51;;;;;;;3.50;1.40;;;;;;;23.00;40.48;100422.69;223647;1265;141001;-89
2023/07/18 18:35:52;;;;;;;6.40;1.70;;;;;;;22.87;40.65;100422.50;224164;1264;137937;-89
2023/07/18 18:40:54;;;;;;;5.10;1.80;;;;;;;22.69;41.07;100425.13;223605;1265;140018;-89
2023/07/18 18:45:56;;;;;;;5.90;1.80;;;;;;;22.53;41.61;100421.50;224061;1264;138110;-89
2023/07/18 18:50:57;;;;;;;5.10;1.70;;;;;;;22.25;42.33;100415.23;223616;1264;139854;-90
2023/07/18 18:56:00;;;;;;;5.30;1.70;;;;;;;22.01;42.84;100409.05;224429;1264;95666;-89
2023/07/18 19:01:00;;;;;;;7.20;1.90;;;;;;;21.74;44.40;100400.64;223500;1264;140980;-89
2023/07/18 19:06:01;;;;;;;7.40;2.40;;;;;;;21.50;44.56;100399.23;224193;1264;138265;-89
2023/07/18 19:11:02;;;;;;;7.80;2.90;;;;;;;21.31;45.29;100401.14;223597;1265;140479;-89
2023/07/18 19:16:03;;;;;;;8.90;3.30;;;;;;;21.10;46.25;100402.09;224152;1265;138540;-88
2023/07/18 19:21:03;;;;;;;8.90;2.40;;;;;;;20.86;46.91;100404.27;223607;1264;139864;-89
2023/07/18 19:26:04;;;;;;;6.30;2.40;;;;;;;20.59;47.90;100404.77;224169;1265;95861;-88
2023/07/18 19:31:04;;;;;;;4.10;1.60;;;;;;;20.35;48.22;100401.73;223579;1264;140529;-89
2023/07/18 19:36:06;;;;;;;4.50;2.10;;;;;;;20.21;49.13;100414.27;224136;1265;137807;-86
2023/07/18 19:41:07;;;;;;;5.80;2.10;;;;;;;20.00;49.60;100416.36;223661;1266;139657;-87
2023/07/18 19:46:07;;;;;;;9.40;3.50;;;;;;;19.75;50.16;100412.73;224141;1264;137991;-87
2023/07/18 19:51:08;;;;;;;7.70;2.60;;;;;;;19.50;50.86;100411.55;223604;1264;140040;-86
2023/07/18 19:56:08;;;;;;;6.60;2.40;;;;;;;19.36;51.90;100416.70;224219;1264;95995;-87
2023/07/18 20:01:09;;;;;;;10.90;2.70;;;;;;;19.19;52.88;100419.56;223724;1264;140639;-86
2023/07/18 20:06:10;;;;;;;11.70;3.10;;;;;;;18.98;53.79;100420.04;224097;1264;139220;-84
2023/07/18 20:11:10;;;;;;;10.80;3.50;;;;;;;18.77;54.80;100421.98;223562;1266;140316;-87
2023/07/18 20:16:11;;;;;;;8.40;2.80;;;;;;;18.60;55.36;100428.55;224084;1266;138481;-87
2023/07/18 20:21:12;;;;;;;9.90;4.30;;;;;;;18.45;55.87;100431.59;223506;1265;140189;-87
2023/07/18 20:26:12;;;;;;;8.80;2.60;;;;;;;18.28;56.29;100430.80;224100;1264;138056;-86
2023/07/18 20:31:13;;;;;;;8.70;2.70;;;;;;;18.14;56.84;100435.54;223726;1264;140207;-89
2023/07/18 20:36:13;;;;;;;6.80;2.90;;;;;;;18.01;56.85;100434.52;224140;1264;137747;-90
2023/07/18 20:41:14;;;;;;;8.00;3.10;;;;;;;17.90;57.17;100433.20;223678;1264;140761;-91
2023/07/18 20:46:16;;;;;;;7.90;3.60;;;;;;;17.80;57.16;100436.26;224174;1264;137958;-90
2023/07/18 20:51:17;;;;;;;10.90;3.80;;;;;;;17.69;57.61;100432.73;223409;1264;140773;-91
2023/07/18 20:56:18;;;;;;;8.90;4.20;;;;;;;17.56;58.07;100433.27;224083;1264;138447;-91
2023/07/18 21:01:20;;;;;;;10.30;5.00;;;;;;;17.45;58.27;100433.60;223674;1264;140280;-90
2023/07/18 21:06:21;;;;;;;9.40;4.60;;;;;;;17.37;58.83;100434.13;223985;1264;138275;-86
2023/07/18 21:11:21;;;;;;;10.30;4.30;;;;;;;17.26;59.33;100427.86;223477;1264;140495;-84
2023/07/18 21:16:22;;;;;;;10.30;4.80;;;;;;;17.15;59.55;100428.05;224084;1266;138179;-84
2023/07/18 21:21:22;;;;;;;10.50;4.40;;;;;;;17.06;59.94;100431.67;223578;1264;141153;-86
2023/07/18 21:26:23;;;;;;;9.20;4.00;;;;;;;16.97;61.08;100431.63;224022;1266;138291;-84
2023/07/18 21:31:24;;;;;;;9.90;4.60;;;;;;;16.85;61.64;100437.15;223668;1264;139950;-84
2023/07/18 21:36:25;;;;;;;10.80;3.60;;;;;;;16.74;61.91;100430.88;224086;1264;138360;-85
2023/07/18 21:41:29;;;;;;;8.20;3.60;;;;;;;16.64;62.70;100428.39;223149;1264;309123;-85
2023/07/18 21:46:29;;;;;;;11.70;5.00;;;;;;;16.56;62.66;100429.52;223640;1268;139152;-84
2023/07/18 21:51:30;;;;;;;12.00;5.60;;;;;;;16.48;63.23;100426.23;223529;1264;140910;-84
2023/07/18 21:56:31;;;;;;;13.40;6.00;;;;;;;16.36;63.53;100429.30;224053;1264;140369;-85
2023/07/18 22:01:32;;;;;;;12.60;5.50;;;;;;;16.27;64.23;100425.10;223636;1268;139779;-85
2023/07/18 22:06:33;;;;;;;10.40;5.30;;;;;;;16.19;64.34;100423.30;224074;1266;138095;-85
2023/07/18 22:11:33;;;;;;;12.50;5.30;;;;;;;16.10;64.99;100419.11;223538;1264;140472;-88
2023/07/18 22:16:34;;;;;;;14.30;6.30;;;;;;;16.01;65.64;100417.86;224018;1267;138384;-86
2023/07/18 22:21:35;;;;;;;9.60;4.30;;;;;;;15.94;66.29;100413.35;223538;1264;140714;-86
2023/07/18 22:26:36;;;;;;;8.60;4.20;;;;;;;15.85;66.35;100407.49;224066;1266;138382;-85
2023/07/18 22:31:36;;;;;;;10.70;4.50;;;;;;;15.76;66.24;100402.91;223771;1266;140528;-86
2023/07/18 22:36:37;;;;;;;10.10;4.50;;;;;;;15.70;66.60;100402.27;224069;1266;138582;-88
2023/07/18 22:41:37;;;;;;;9.00;4.20;;;;;;;15.66;67.60;100404.52;223453;1266;140416;-90
2023/07/18 22:46:38;;;;;;;10.20;4.00;;;;;;;15.58;68.17;100402.70;223914;1268;138268;-89